Terminal Aerodrome Forecast
Issued by NWS Twin Cities, MN

Home | Current Version | Previous Version | Text Only | Print | Product List | Glossary Off
Versions: 1 2 3 4 5 6 7 8 9 10 11 12 13 14 15 16 17 18 19 20 21 22 23 24 25 26

760
FTUS43 KMPX 262320
TAFMSP
TAF
KMSP 262320Z 2700/2806 24009KT P6SM SCT060
     FM270100 27004KT P6SM SKC
     FM271200 25005KT P6SM SCT120 BKN250
     FM272000 25007KT P6SM SCT050 BKN100
     FM280100 19005KT P6SM BKN100=

USA.gov is the U.S. government's official web portal to all federal, state and local government web resources and services.